EFMA/MHQ METAR and TAF weather

Enter ICAO airport designator
Station Type Date Time Source
EFMA METAR 2018/12/11 00:50 UTC NOAA

EFMA 110050Z AUTO 03008KT 9999 -SHRA OVC008 02/01 Q1006


Station Type Date Time Source
EFMA Decoded METAR 2018/12/11 00:50 UTC NOAA

Mariehamn / Aland Island, Finland (EFMA) 60-07N 019-54E
Dec 10, 2018 - 07:50 PM EST / 2018.12.11 0050 UTC
Wind: from the NNE (030 degrees) at 9 MPH (8 KT):0
Visibility: greater than 7 mile(s):0
Sky conditions: overcast
Weather: light rain showers
Temperature: 35 F (2 C)
Windchill: 28 F (-2 C):1
Dew Point: 33 F (1 C)
Relative Humidity: 93%
Pressure (altimeter): 29.71 in. Hg (1006 hPa)
ob: EFMA 110050Z AUTO 03008KT 9999 -SHRA OVC008 02/01 Q1006
cycle: 1

Station Type Date Time Source
EFMA TAF 2014/05/01 21:18 UTC NOAA

TAF TAF EFMA 302037Z 3021/0106 08008KT CAVOK
TEMPO 3023/0101 02010KT 6000 RASN
BECMG 0101/0103 01012KT 4000 RASN BKN010 OVC025


Example: see airport list